Terminal Aerodrome Forecast
Issued by NWS Mobile, AL

Home | Current Version | Previous Version | Text Only | Print | Product List | Glossary On
Versions: 1 2 3 4 5 6 7 8 9 10 11 12 13 14 15 16 17 18 19 20 21 22 23 24 25 26 27 28 29 30 31 32 33 34 35 36
000
FTUS44 KMOB 301400 AAB
TAFMOB
TAF AMD
KMOB 301423Z 3014/0112 04006KT 3SM BR OVC003
     FM301600 05006KT P6SM BKN018
     FM010300 00000KT 5SM BR BKN012
     FM011000 00000KT 3SM BR OVC007=

USA.gov is the U.S. government's official web portal to all federal, state and local government web resources and services.